Terminal Aerodrome Forecast
Issued by NWS Topeka, KS

Home | Current Version | Previous Version | Text Only | Print | Product List | Glossary On
Versions: 1 2 3 4 5 6 7 8 9 10 11 12 13 14 15
000
FTUS43 KTOP 240500
TAFTOP
TAF
KTOP 240520Z 2406/2506 13007KT P6SM -SHRA VCTS OVC050CB
     FM241700 17010KT P6SM SCT050 OVC100
     FM250000 13003KT P6SM BKN100=

USA.gov is the U.S. government's official web portal to all federal, state and local government web resources and services.